createdAt,value
2022-12-04T00:01:24.651Z,16.30
2022-12-04T00:03:56.087Z,15.65
2022-12-04T00:06:29.048Z,18.35
2022-12-04T00:08:59.254Z,19.45
2022-12-04T00:11:31.167Z,16.40
2022-12-04T00:14:06.948Z,17.45
2022-12-04T00:16:38.100Z,15.75
2022-12-04T00:19:08.051Z,17.30
2022-12-04T00:21:40.493Z,16.35
2022-12-04T00:24:10.592Z,18.00
2022-12-04T00:26:40.456Z,17.45
2022-12-04T00:29:10.240Z,17.40
2022-12-04T00:31:40.231Z,16.38
2022-12-04T00:34:10.168Z,17.98
2022-12-04T00:36:42.638Z,16.75
2022-12-04T00:39:12.569Z,15.98
2022-12-04T00:41:42.569Z,16.40
2022-12-04T00:44:12.359Z,16.95
2022-12-04T00:46:42.221Z,17.52
2022-12-04T00:49:12.049Z,16.55
2022-12-04T00:51:44.471Z,15.98
2022-12-04T00:54:14.272Z,16.73
2022-12-04T00:56:44.049Z,17.58
2022-12-04T00:59:14.122Z,18.10
2022-12-04T01:01:43.945Z,16.35
2022-12-04T01:04:13.797Z,16.55
2022-12-04T01:06:46.184Z,15.93
2022-12-04T01:09:16.120Z,16.35
2022-12-04T01:11:45.948Z,16.30
2022-12-04T01:14:15.810Z,16.15
2022-12-04T01:16:45.664Z,15.73
2022-12-04T01:19:15.679Z,18.08
2022-12-04T01:21:48.079Z,16.13
2022-12-04T01:24:18.068Z,17.40
2022-12-04T01:26:47.876Z,16.23
2022-12-04T01:29:17.898Z,16.08
2022-12-04T01:31:47.870Z,17.92
2022-12-04T01:34:17.755Z,16.98
2022-12-04T01:36:50.180Z,15.80
2022-12-04T01:39:20.067Z,15.98
2022-12-04T01:41:50.248Z,14.73
2022-12-04T01:44:22.953Z,15.95
2022-12-04T01:46:54.513Z,16.25
2022-12-04T01:49:28.259Z,17.60
2022-12-04T01:52:03.692Z,16.55
2022-12-04T01:54:38.582Z,14.35
2022-12-04T01:57:13.737Z,14.38
2022-12-04T01:59:47.370Z,14.70
2022-12-04T02:02:19.834Z,13.75
2022-12-04T02:04:50.199Z,15.05
2022-12-04T02:07:22.569Z,15.23
2022-12-04T02:09:56.304Z,15.27
2022-12-04T02:12:35.487Z,14.48
2022-12-04T02:15:12.111Z,15.05
2022-12-04T02:17:48.887Z,14.70
2022-12-04T02:20:35.021Z,14.98
2022-12-04T02:23:28.563Z,14.15
2022-12-04T02:26:13.572Z,14.85
2022-12-04T02:28:51.560Z,16.02
2022-12-04T02:31:24.530Z,14.98
2022-12-04T02:34:01.687Z,14.05
2022-12-04T02:36:34.748Z,13.82
2022-12-04T02:39:10.757Z,14.80
2022-12-04T02:41:46.400Z,15.05
2022-12-04T02:44:25.729Z,14.77
2022-12-04T02:47:00.339Z,16.10
2022-12-04T02:49:35.136Z,14.57
2022-12-04T02:52:09.623Z,15.70
2022-12-04T02:57:16.304Z,15.70
2022-12-04T03:02:25.914Z,14.43
2022-12-04T03:04:58.020Z,14.13
2022-12-04T03:07:33.304Z,14.32
2022-12-04T03:10:08.167Z,14.73
2022-12-04T03:12:42.769Z,14.00
2022-12-04T03:15:20.559Z,15.75
2022-12-04T03:17:56.127Z,16.25
2022-12-04T03:20:27.083Z,16.40
2022-12-04T03:23:02.355Z,14.25
2022-12-04T03:25:46.523Z,15.75
2022-12-04T03:28:25.131Z,15.43
2022-12-04T03:31:02.137Z,16.45
2022-12-04T03:33:36.876Z,14.90
2022-12-04T03:36:16.576Z,15.13
2022-12-04T03:38:51.877Z,15.82
2022-12-04T03:41:28.685Z,15.32
2022-12-04T03:44:03.731Z,16.58
2022-12-04T03:46:41.834Z,15.23
2022-12-04T03:49:18.685Z,15.07
2022-12-04T03:51:54.621Z,15.05
2022-12-04T03:54:26.956Z,16.42
2022-12-04T03:57:02.472Z,16.17
2022-12-04T03:59:37.739Z,15.80
2022-12-04T04:02:16.132Z,18.42
2022-12-04T04:04:49.614Z,16.52
2022-12-04T04:07:25.669Z,17.05
2022-12-04T04:10:03.127Z,16.73
2022-12-04T04:12:38.281Z,17.25
2022-12-04T04:15:26.928Z,17.90
2022-12-04T04:18:13.982Z,16.85
2022-12-04T04:21:00.169Z,17.45
2022-12-04T04:23:48.355Z,16.83
2022-12-04T04:26:19.276Z,16.05
2022-12-04T04:28:49.199Z,18.13
2022-12-04T04:31:28.032Z,16.95
2022-12-04T04:34:06.844Z,18.05
2022-12-04T04:36:43.403Z,17.63
2022-12-04T04:39:22.214Z,17.58
2022-12-04T04:41:58.595Z,18.00
2022-12-04T04:44:33.120Z,17.55
2022-12-04T04:49:39.129Z,18.83
2022-12-04T04:52:09.276Z,18.02
2022-12-04T04:54:40.811Z,18.50
2022-12-04T04:57:10.620Z,18.67
2022-12-04T04:59:40.415Z,17.88
2022-12-04T05:02:10.363Z,17.83
2022-12-04T05:04:42.709Z,18.58
2022-12-04T05:07:12.505Z,17.00
2022-12-04T05:09:42.326Z,19.25
2022-12-04T05:12:12.253Z,17.30
2022-12-04T05:14:42.030Z,18.23
2022-12-04T05:17:12.956Z,17.83
2022-12-04T05:19:57.898Z,20.85
2022-12-04T05:24:58.694Z,17.65
2022-12-04T05:27:30.263Z,19.48
2022-12-04T05:30:01.451Z,17.73
2022-12-04T05:32:32.316Z,18.63
2022-12-04T05:35:10.589Z,18.60
2022-12-04T05:37:41.933Z,18.48
2022-12-04T05:40:12.844Z,20.50
2022-12-04T05:42:42.656Z,18.52
2022-12-04T05:45:13.025Z,18.52
2022-12-04T05:47:43.514Z,20.98
2022-12-04T05:50:16.773Z,17.08
2022-12-04T05:52:46.552Z,18.67
2022-12-04T05:55:16.450Z,18.42
2022-12-04T05:57:46.259Z,19.00
2022-12-04T06:00:18.257Z,18.35
2022-12-04T06:02:48.151Z,19.08
2022-12-04T06:05:20.867Z,19.27
2022-12-04T06:07:50.721Z,20.42
2022-12-04T06:10:20.736Z,19.27
2022-12-04T06:12:50.564Z,18.63
2022-12-04T06:15:20.536Z,18.35
2022-12-04T06:17:50.321Z,19.45
2022-12-04T06:20:22.943Z,18.83
2022-12-04T06:22:52.728Z,19.05
2022-12-04T06:25:22.551Z,20.15
2022-12-04T06:27:52.328Z,19.92
2022-12-04T06:30:22.234Z,19.55
2022-12-04T06:32:52.093Z,17.63
2022-12-04T06:35:24.422Z,17.08
2022-12-04T06:37:54.207Z,17.30
2022-12-04T06:40:23.991Z,18.70
2022-12-04T06:42:53.726Z,17.92
2022-12-04T06:45:23.568Z,18.27
2022-12-04T06:47:53.358Z,16.13
2022-12-04T06:50:25.715Z,18.25
2022-12-04T06:53:01.124Z,17.67
2022-12-04T06:55:34.798Z,18.48
2022-12-04T06:58:04.572Z,18.13
2022-12-04T07:00:34.356Z,18.65
2022-12-04T07:03:04.119Z,17.83
2022-12-04T07:05:36.493Z,18.45
2022-12-04T07:08:06.531Z,16.95
2022-12-04T07:10:38.279Z,17.90
2022-12-04T07:13:08.623Z,16.45
2022-12-04T07:15:40.029Z,18.40
2022-12-04T07:18:09.817Z,16.48
2022-12-04T07:20:43.283Z,19.05
2022-12-04T07:23:13.075Z,16.10
2022-12-04T07:25:43.244Z,17.70
2022-12-04T07:28:12.978Z,17.60
2022-12-04T07:30:42.919Z,16.98
2022-12-04T07:33:12.748Z,17.17
2022-12-04T07:35:45.170Z,16.55
2022-12-04T07:38:15.060Z,16.60
2022-12-04T07:40:44.776Z,16.08
2022-12-04T07:43:14.507Z,16.40
2022-12-04T07:45:44.376Z,15.63
2022-12-04T07:48:14.157Z,16.35
2022-12-04T07:50:46.590Z,16.15
2022-12-04T07:53:16.371Z,16.15
2022-12-04T07:55:46.158Z,19.33
2022-12-04T07:58:15.931Z,16.83
2022-12-04T08:00:45.742Z,18.08
2022-12-04T08:03:15.612Z,15.75
2022-12-04T08:05:48.025Z,15.77
2022-12-04T08:08:17.986Z,14.80
2022-12-04T08:10:47.812Z,15.52
2022-12-04T08:13:17.585Z,14.77
2022-12-04T08:15:47.326Z,14.55
2022-12-04T08:18:17.303Z,16.13
2022-12-04T08:20:49.660Z,15.45
2022-12-04T08:23:19.464Z,16.30
2022-12-04T08:25:49.305Z,15.02
2022-12-04T08:28:19.132Z,15.18
2022-12-04T08:30:49.079Z,14.23
2022-12-04T08:33:18.918Z,14.55
2022-12-04T08:35:51.424Z,14.90
2022-12-04T08:38:21.199Z,14.32
2022-12-04T08:40:51.009Z,16.05
2022-12-04T08:43:20.892Z,15.07
2022-12-04T08:45:58.838Z,14.70
2022-12-04T08:48:29.148Z,14.77
2022-12-04T08:51:03.908Z,15.07
2022-12-04T08:53:34.447Z,14.05
2022-12-04T08:56:04.398Z,17.75
2022-12-04T08:58:34.446Z,14.23
2022-12-04T09:01:07.787Z,14.25
2022-12-04T09:03:38.663Z,15.32
2022-12-04T09:06:12.599Z,15.05
2022-12-04T09:08:43.165Z,13.60
2022-12-04T09:11:15.281Z,13.40
2022-12-04T09:13:46.066Z,13.82
2022-12-04T09:16:18.012Z,13.70
2022-12-04T09:18:48.563Z,13.80
2022-12-04T09:21:23.023Z,14.88
2022-12-04T09:23:53.783Z,14.38
2022-12-04T09:26:26.823Z,13.82
2022-12-04T09:28:57.762Z,13.95
2022-12-04T09:31:27.853Z,13.55
2022-12-04T09:33:58.057Z,13.82
2022-12-04T09:36:30.802Z,14.23
2022-12-04T09:39:00.933Z,12.93
2022-12-04T09:42:00.920Z,13.38
2022-12-04T09:44:36.316Z,12.80
2022-12-04T09:47:08.932Z,13.05
2022-12-04T09:49:43.788Z,13.75
2022-12-04T09:52:30.502Z,13.43
2022-12-04T09:55:03.116Z,12.95
2022-12-04T09:57:39.552Z,13.88
2022-12-04T10:00:14.356Z,13.02
2022-12-04T10:02:47.267Z,13.02
2022-12-04T10:05:23.520Z,12.18
2022-12-04T10:08:06.588Z,12.15
2022-12-04T10:10:42.575Z,12.30
2022-12-04T10:13:32.436Z,12.65
2022-12-04T10:16:10.433Z,12.68
2022-12-04T10:18:50.385Z,13.52
2022-12-04T10:21:48.498Z,15.45
2022-12-04T10:24:31.754Z,12.48
2022-12-04T10:27:04.468Z,11.48
2022-12-04T10:29:38.308Z,11.88
2022-12-04T10:32:19.577Z,12.05
2022-12-04T10:34:51.132Z,12.10
2022-12-04T10:37:21.046Z,12.98
2022-12-04T10:39:59.361Z,12.15
2022-12-04T10:42:38.461Z,12.43
2022-12-04T10:45:09.671Z,12.15
2022-12-04T10:47:47.827Z,13.00
2022-12-04T10:50:21.004Z,12.95
2022-12-04T10:52:50.864Z,12.63
2022-12-04T10:55:33.689Z,12.35
2022-12-04T10:58:03.875Z,13.40
2022-12-04T11:00:36.513Z,12.93
2022-12-04T11:03:12.747Z,12.93
2022-12-04T11:05:48.785Z,13.73
2022-12-04T11:08:26.485Z,13.18
2022-12-04T11:11:04.182Z,12.05
2022-12-04T11:13:34.165Z,12.10
2022-12-04T11:16:04.588Z,12.15
2022-12-04T11:18:37.056Z,12.35
2022-12-04T11:21:08.595Z,12.18
2022-12-04T11:23:46.138Z,13.13
2022-12-04T11:26:20.000Z,11.93
2022-12-04T11:28:56.365Z,12.45
2022-12-04T11:31:26.382Z,12.30
2022-12-04T11:34:00.092Z,11.30
2022-12-04T11:36:32.975Z,12.52
2022-12-04T11:39:17.331Z,11.38
2022-12-04T11:41:49.917Z,11.63
2022-12-04T11:44:28.162Z,11.20
2022-12-04T11:47:01.854Z,11.10
2022-12-04T11:49:33.366Z,11.23
2022-12-04T11:52:22.908Z,10.70
2022-12-04T11:55:03.843Z,11.25
2022-12-04T11:57:45.810Z,11.30
2022-12-04T12:00:17.743Z,11.57
2022-12-04T12:02:59.895Z,11.25
2022-12-04T12:06:19.317Z,11.52
2022-12-04T12:09:04.144Z,11.23
2022-12-04T12:11:37.201Z,11.57
2022-12-04T12:14:17.040Z,11.40
2022-12-04T12:16:56.980Z,11.85
2022-12-04T12:19:55.964Z,11.57
2022-12-04T12:22:39.014Z,11.23
2022-12-04T12:25:18.970Z,11.48
2022-12-04T12:28:07.812Z,11.57
2022-12-04T12:30:52.557Z,12.35
2022-12-04T12:33:26.109Z,12.57
2022-12-04T12:36:03.443Z,13.57
2022-12-04T12:38:37.806Z,12.27
2022-12-04T12:41:11.342Z,11.85
2022-12-04T12:43:42.690Z,12.95
2022-12-04T12:46:18.970Z,14.13
2022-12-04T12:48:58.587Z,12.68
2022-12-04T12:51:36.697Z,11.45
2022-12-04T12:54:17.628Z,12.50
2022-12-04T12:56:52.347Z,11.80
2022-12-04T12:59:26.426Z,12.60
2022-12-04T13:02:04.281Z,11.43
2022-12-04T13:04:40.416Z,12.52
2022-12-04T13:07:25.479Z,11.95
2022-12-04T13:10:00.417Z,11.52
2022-12-04T13:12:30.615Z,12.35
2022-12-04T13:15:00.556Z,11.88
2022-12-04T13:17:36.453Z,12.18
2022-12-04T13:20:15.340Z,13.63
2022-12-04T13:23:03.852Z,12.27
2022-12-04T13:25:52.538Z,12.60
2022-12-04T13:28:36.393Z,13.20
2022-12-04T13:31:14.495Z,13.47
2022-12-04T13:34:04.405Z,12.88
2022-12-04T13:36:51.515Z,13.38
2022-12-04T13:39:53.384Z,13.00
2022-12-04T13:42:26.881Z,12.68
2022-12-04T13:44:59.091Z,12.00
2022-12-04T13:47:31.814Z,12.93
2022-12-04T13:50:30.986Z,13.98
2022-12-04T13:53:01.486Z,14.25
2022-12-04T13:55:34.166Z,14.00
2022-12-04T13:58:05.568Z,13.93
2022-12-04T14:00:37.092Z,13.45
2022-12-04T14:03:09.632Z,12.52
2022-12-04T14:05:46.528Z,13.13
2022-12-04T14:08:26.985Z,13.75
2022-12-04T14:11:03.723Z,13.75
2022-12-04T14:13:45.983Z,12.90
2022-12-04T14:16:25.720Z,13.38
2022-12-04T14:18:59.057Z,14.55
2022-12-04T14:21:41.480Z,15.18
2022-12-04T14:24:20.104Z,13.93
2022-12-04T14:27:11.235Z,13.43
2022-12-04T14:29:50.492Z,14.95
2022-12-04T14:32:25.916Z,13.98
2022-12-04T14:34:57.016Z,13.88
2022-12-04T14:37:33.295Z,13.95
2022-12-04T14:40:04.111Z,14.27
2022-12-04T14:42:39.387Z,14.73
2022-12-04T14:45:23.067Z,14.27
2022-12-04T14:48:06.817Z,13.45
2022-12-04T14:50:45.085Z,15.85
2022-12-04T14:53:36.052Z,13.80
2022-12-04T14:56:18.770Z,15.02
2022-12-04T14:58:48.636Z,14.85
2022-12-04T15:01:29.019Z,15.75
2022-12-04T15:04:01.753Z,16.45
2022-12-04T15:06:34.307Z,17.25
2022-12-04T15:09:30.256Z,15.77
2022-12-04T15:12:25.812Z,17.10
2022-12-04T15:14:55.843Z,17.23
2022-12-04T15:17:25.780Z,19.48
2022-12-04T15:19:55.587Z,19.45
2022-12-04T15:22:28.044Z,17.52
2022-12-04T15:25:00.624Z,18.15
2022-12-04T15:27:32.925Z,17.77
2022-12-04T15:30:05.041Z,17.63
2022-12-04T15:32:35.539Z,17.33
2022-12-04T15:35:09.274Z,17.50
2022-12-04T15:37:39.481Z,17.83
2022-12-04T15:40:21.324Z,16.73
2022-12-04T15:42:51.600Z,16.83
2022-12-04T15:45:34.396Z,16.30
2022-12-04T15:48:04.410Z,18.15
2022-12-04T15:50:34.195Z,17.40
2022-12-04T15:53:11.159Z,16.65
2022-12-04T15:55:51.712Z,18.27
2022-12-04T15:58:24.742Z,17.50
2022-12-04T16:00:58.899Z,18.65
2022-12-04T16:03:32.013Z,19.25
2022-12-04T16:06:06.829Z,18.83
2022-12-04T16:08:38.144Z,18.55
2022-12-04T16:11:25.988Z,17.95
2022-12-04T16:14:07.315Z,18.83
2022-12-04T16:16:38.260Z,19.13
2022-12-04T16:19:12.460Z,19.33
2022-12-04T16:21:42.293Z,20.45
2022-12-04T16:24:14.660Z,18.90
2022-12-04T16:26:47.153Z,20.75
2022-12-04T16:29:16.927Z,20.30
2022-12-04T16:31:46.964Z,20.95
2022-12-04T16:34:17.376Z,20.95
2022-12-04T16:36:47.191Z,21.98
2022-12-04T16:39:17.117Z,22.95
2022-12-04T16:41:49.495Z,21.02
2022-12-04T16:44:19.680Z,22.35
2022-12-04T16:46:49.573Z,22.15
2022-12-04T16:49:19.361Z,24.27
2022-12-04T16:51:52.161Z,23.40
2022-12-04T16:54:21.898Z,22.17
2022-12-04T16:56:54.303Z,21.88
2022-12-04T16:59:24.453Z,20.60
2022-12-04T17:01:55.505Z,22.38
2022-12-04T17:04:25.519Z,22.30
2022-12-04T17:06:55.452Z,22.40
2022-12-04T17:09:25.240Z,23.25
2022-12-04T17:11:57.616Z,21.52
2022-12-04T17:14:27.367Z,21.92
2022-12-04T17:16:58.808Z,22.75
2022-12-04T17:19:28.844Z,23.48
2022-12-04T17:22:01.178Z,23.80
2022-12-04T17:24:30.956Z,24.85
2022-12-04T17:27:05.098Z,23.88
2022-12-04T17:29:34.911Z,24.27
2022-12-04T17:32:04.736Z,24.95
2022-12-04T17:34:34.536Z,23.02
2022-12-04T17:37:04.353Z,24.50
2022-12-04T17:39:34.230Z,23.00
2022-12-04T17:42:06.714Z,23.00
2022-12-04T17:44:36.593Z,22.70
2022-12-04T17:47:07.030Z,21.73
2022-12-04T17:49:36.847Z,20.88
2022-12-04T17:52:07.215Z,21.48
2022-12-04T17:54:37.523Z,20.63
2022-12-04T17:57:09.957Z,21.05
2022-12-04T17:59:41.191Z,21.02
2022-12-04T18:02:12.324Z,22.15
2022-12-04T18:04:42.208Z,20.90
2022-12-04T18:07:12.776Z,21.98
2022-12-04T18:09:42.651Z,24.38
2022-12-04T18:12:15.015Z,21.42
2022-12-04T18:14:45.300Z,20.83
2022-12-04T18:17:17.528Z,20.50
2022-12-04T18:19:47.280Z,20.38
2022-12-04T18:22:17.072Z,22.33
2022-12-04T18:24:46.810Z,21.80
2022-12-04T18:27:19.135Z,20.15
2022-12-04T18:29:48.879Z,21.50
2022-12-04T18:32:18.731Z,20.80
2022-12-04T18:34:48.465Z,19.85
2022-12-04T18:37:18.410Z,20.58
2022-12-04T18:39:48.286Z,20.30
2022-12-04T18:42:20.660Z,19.63
2022-12-04T18:44:50.476Z,19.20
2022-12-04T18:47:20.299Z,18.35
2022-12-04T18:49:50.076Z,19.45
2022-12-04T18:52:19.780Z,18.92
2022-12-04T18:54:49.535Z,17.20
2022-12-04T18:57:21.894Z,17.42
2022-12-04T18:59:51.687Z,17.33
2022-12-04T19:02:21.617Z,16.55
2022-12-04T19:04:51.466Z,17.60
2022-12-04T19:07:21.592Z,18.30
2022-12-04T19:10:21.496Z,17.38
2022-12-04T19:12:43.823Z,18.38
2022-12-04T19:15:14.148Z,17.20
2022-12-04T19:17:44.061Z,16.80
2022-12-04T19:20:14.515Z,19.13
2022-12-04T19:22:44.695Z,19.05
2022-12-04T19:25:14.537Z,18.58
2022-12-04T19:27:46.909Z,19.58
2022-12-04T19:30:17.335Z,17.83
2022-12-04T19:32:47.107Z,17.58
2022-12-04T19:35:16.996Z,17.05
2022-12-04T19:37:52.368Z,16.15
2022-12-04T19:40:22.874Z,17.13
2022-12-04T19:43:01.120Z,15.95
2022-12-04T19:45:32.722Z,16.13
2022-12-04T19:48:02.512Z,16.80
2022-12-04T19:50:32.437Z,17.83
2022-12-04T19:53:02.392Z,17.58
2022-12-04T19:55:32.129Z,17.10
2022-12-04T19:58:04.512Z,17.42
2022-12-04T20:00:34.277Z,19.65
2022-12-04T20:03:04.127Z,17.60
2022-12-04T20:05:37.815Z,19.80
2022-12-04T20:10:38.572Z,19.27
2022-12-04T20:13:10.984Z,21.13
2022-12-04T20:15:42.239Z,18.45
2022-12-04T20:18:13.608Z,19.55
2022-12-04T20:20:45.795Z,18.88
2022-12-04T20:23:15.528Z,18.90
2022-12-04T20:25:45.386Z,18.65
2022-12-04T20:28:17.911Z,18.40
2022-12-04T20:30:47.844Z,17.92
2022-12-04T20:33:17.895Z,16.58
2022-12-04T20:35:47.704Z,17.38
2022-12-04T20:38:17.665Z,17.92
2022-12-04T20:40:48.111Z,16.83
2022-12-04T20:43:20.454Z,17.20
2022-12-04T20:45:50.329Z,17.35
2022-12-04T20:48:20.139Z,17.08
2022-12-04T20:50:49.936Z,18.13
2022-12-04T20:53:19.874Z,17.20
2022-12-04T20:55:56.264Z,16.98
2022-12-04T20:58:30.047Z,17.45
2022-12-04T21:00:59.964Z,16.50
2022-12-04T21:03:30.871Z,17.23
2022-12-04T21:06:00.665Z,18.35
2022-12-04T21:08:42.927Z,17.60
2022-12-04T21:11:12.721Z,16.40
2022-12-04T21:13:57.588Z,17.40
2022-12-04T21:18:57.211Z,17.23
2022-12-04T21:21:28.981Z,18.40
2022-12-04T21:23:58.805Z,17.77
2022-12-04T21:26:31.280Z,16.40
2022-12-04T21:29:04.480Z,16.67
2022-12-04T21:31:34.756Z,17.73
2022-12-04T21:34:06.520Z,17.38
2022-12-04T21:36:36.823Z,17.50
2022-12-04T21:39:07.657Z,18.23
2022-12-04T21:41:50.252Z,17.77
2022-12-04T21:44:23.999Z,17.92
2022-12-04T21:46:53.941Z,17.95
2022-12-04T21:49:23.735Z,16.85
2022-12-04T21:51:58.151Z,18.75
2022-12-04T21:54:29.115Z,18.60
2022-12-04T21:56:59.616Z,18.52
2022-12-04T21:59:32.061Z,17.70
2022-12-04T22:02:01.930Z,17.70
2022-12-04T22:04:33.729Z,17.30
2022-12-04T22:07:03.537Z,17.58
2022-12-04T22:09:33.263Z,16.85
2022-12-04T22:12:14.679Z,17.85
2022-12-04T22:14:55.331Z,17.75
2022-12-04T22:17:25.107Z,17.95
2022-12-04T22:19:55.228Z,17.00
2022-12-04T22:22:25.245Z,17.13
2022-12-04T22:24:54.996Z,17.13
2022-12-04T22:27:24.883Z,18.40
2022-12-04T22:29:57.518Z,17.20
2022-12-04T22:32:27.349Z,17.38
2022-12-04T22:34:57.119Z,17.23
2022-12-04T22:37:27.044Z,17.77
2022-12-04T22:39:56.998Z,17.35
2022-12-04T22:42:27.036Z,17.95
2022-12-04T22:44:59.452Z,17.65
2022-12-04T22:47:29.347Z,15.75
2022-12-04T22:49:59.434Z,17.05
2022-12-04T22:52:32.189Z,14.70
2022-12-04T22:55:02.053Z,17.75
2022-12-04T22:57:31.863Z,16.98
2022-12-04T23:00:04.226Z,17.20
2022-12-04T23:02:35.250Z,15.65
2022-12-04T23:05:05.045Z,15.77
2022-12-04T23:07:34.922Z,16.90
2022-12-04T23:10:04.815Z,15.40
2022-12-04T23:12:34.961Z,15.40
2022-12-04T23:15:08.175Z,15.35
2022-12-04T23:17:38.431Z,16.63
2022-12-04T23:20:10.288Z,16.67
2022-12-04T23:22:40.321Z,15.80
2022-12-04T23:25:11.003Z,14.35
2022-12-04T23:27:40.773Z,14.70
2022-12-04T23:30:13.776Z,15.10
2022-12-04T23:32:43.597Z,17.30
2022-12-04T23:35:13.384Z,15.02
2022-12-04T23:37:43.294Z,16.15
2022-12-04T23:40:14.006Z,15.23
2022-12-04T23:42:44.127Z,15.50
2022-12-04T23:45:16.531Z,15.98
2022-12-04T23:47:47.495Z,15.00
2022-12-04T23:50:17.308Z,15.30
2022-12-04T23:52:47.138Z,15.23
2022-12-04T23:55:17.128Z,14.75
2022-12-04T23:57:46.965Z,14.38
